Adams, TN

9:08 AM CDT on April 19, 2015 (GMT -0500)
JML Farms | | Change Station
CLOSE
Current Station
Personal Weather Station
Location: Springfield, TN
Elevation: 689 ft
Nearby Weather Stations

Elev 689 ft 36.47 °N, 86.97 °W | Updated 4 minutes ago

Rain
Rain
63.5 °F
Feels Like 63.5 °F
N
3.0
Wind Variable Wind from NW
Gusts 5.0 mph

Today
High -- | Low -- °F
--% Chance of Precip.
Yesterday
High -- | Low -- °F
Precip. -- in
6:09 AM 7:25 PM
New Moon, 1% visible
Pressure 29.65 in
Visibility 5.0 miles
Clouds Mostly Cloudy 300 ft
Overcast 1600 ft
Dew Point 63 °F
Humidity 98%
Rainfall 1.24 in
Snow Depth Not available.
UV 1 out of 12
Pollen 3.20 out of 12
Air Quality Not available.
Flu Activity Sporadic
METAR KHOP 191358Z AUTO 23002KT 5SM -RA BR BKN003 OVC016 18/18 A2965 RMK AO2 RAE10DZB10E27DZB33E49RAB49 SLP038 P0004 T01820177

More Conditions Fewer Conditions

Pressure 29.65 in
Visibility 5.0 miles
Clouds Mostly Cloudy 300 ft
Overcast 1600 ft
Dew Point 63 °F
Humidity 98%
Rainfall 1.24 in
Snow Depth Not available.
UV 1 out of 12
Pollen 3.20 out of 12
Air Quality Not available.
Flu Activity Sporadic
METAR KHOP 191358Z AUTO 23002KT 5SM -RA BR BKN003 OVC016 18/18 A2965 RMK AO2 RAE10DZB10E27DZB33E49RAB49 SLP038 P0004 T01820177

More Conditions Fewer Conditions

10-Day Weather Forecast

Almanac

Astronomy

Apr. 19, 2015 Rise Set
Actual Time
Civil Twilight
Nautical Twilight
Astronomical Twilight
Moon
Length of Visible Light
Length of Day
Tomorrow will be .
, % of the Moon is Illuminated

Today's Extremes

State Highs State Lows

Community

WunderPhotos

Upload Photos

1,814,800 photos uploaded!

WunderBlogs® & News

Nearby

Air Quality

  Air Quality AQ Index Pollutant
Not available.

Snow Depth

Station Depth Elevation

Earthquake Activity

City Distance Mag. Time & Date
Minimum magnitude displayed is 2.5.

Coastal Water Temperatures

Place Temperature

Stations

Nearby Weather Stations

Station Location Temp. Windchill Dew Point Humidity Wind Precip. Elev Updated Type